Time;durP1;ratioP1;P1;durP2;ratioP2;P2;SDS_P1;SDS_P2;PMS_P1;PMS_P2;Temp;Humidity;BMP_temperature;BMP_pressure;BME280_temperature;BME280_humidity;BME280_pressure;Samples;Min_cycle;Max_cycle;Signal;HPM_P1;HPM_P2
2022/01/10 00:00:16;;;;;;;33.75;19.55;;;4.90;99.90;;;;;;4938534;29;20405;-83
2022/01/10 00:02:43;;;;;;;40.15;19.77;;;4.80;99.90;;;;;;4932748;28;20441;-83
2022/01/10 00:05:12;;;;;;;34.75;19.88;;;4.80;99.90;;;;;;4931033;29;20757;-82
2022/01/10 00:07:38;;;;;;;37.88;19.63;;;4.70;99.90;;;;;;4929739;29;20414;-83
2022/01/10 00:10:04;;;;;;;35.83;20.38;;;4.70;99.90;;;;;;4931527;29;20730;-83
2022/01/10 00:12:29;;;;;;;34.58;19.42;;;4.70;99.90;;;;;;4929204;29;20386;-82
2022/01/10 00:14:55;;;;;;;30.75;19.20;;;4.70;99.90;;;;;;4935843;28;20384;-82
2022/01/10 00:17:21;;;;;;;29.80;19.23;;;4.70;99.90;;;;;;4934758;29;20394;-83
2022/01/10 00:19:47;;;;;;;30.10;18.75;;;4.80;99.90;;;;;;4932852;29;20453;-82
2022/01/10 00:22:12;;;;;;;31.47;18.67;;;4.90;99.90;;;;;;4940847;29;20402;-83
2022/01/10 00:24:38;;;;;;;36.17;19.42;;;4.90;99.90;;;;;;4935242;29;20417;-84
2022/01/10 00:27:04;;;;;;;33.03;19.75;;;5.00;99.90;;;;;;4934395;29;20400;-83
2022/01/10 00:29:30;;;;;;;34.85;20.33;;;5.00;99.90;;;;;;4932658;29;20430;-83
2022/01/10 00:31:59;;;;;;;30.58;19.85;;;5.00;99.90;;;;;;4933091;29;20394;-83
2022/01/10 00:34:26;;;;;;;30.95;20.02;;;5.00;99.90;;;;;;4935241;29;20393;-83
2022/01/10 00:36:52;;;;;;;33.30;20.23;;;5.00;99.90;;;;;;4934541;29;20907;-83
2022/01/10 00:39:18;;;;;;;34.42;20.33;;;5.00;99.90;;;;;;4942573;28;20435;-83
2022/01/10 00:41:45;;;;;;;35.05;20.88;;;4.90;99.90;;;;;;4953033;29;20491;-83
2022/01/10 00:44:12;;;;;;;36.70;19.65;;;4.90;99.90;;;;;;4936747;29;20492;-82
2022/01/10 00:46:37;;;;;;;34.50;20.05;;;5.00;99.90;;;;;;4933123;29;20911;-82
2022/01/10 00:49:03;;;;;;;29.77;19.60;;;5.00;99.90;;;;;;4934897;29;20410;-82
2022/01/10 00:51:29;;;;;;;32.72;19.08;;;5.00;99.90;;;;;;4932788;29;20418;-82
2022/01/10 00:53:54;;;;;;;30.88;18.95;;;5.00;99.90;;;;;;4949220;29;20409;-83
2022/01/10 00:56:21;;;;;;;30.77;18.75;;;5.10;99.90;;;;;;4931303;29;20395;-83
2022/01/10 00:58:47;;;;;;;28.75;18.77;;;5.10;99.90;;;;;;4939358;29;20427;-82
2022/01/10 01:01:14;;;;;;;30.20;18.73;;;5.10;99.90;;;;;;4952300;29;20420;-83
2022/01/10 01:03:40;;;;;;;33.65;18.52;;;5.20;99.90;;;;;;4940465;28;20409;-83
2022/01/10 01:06:06;;;;;;;33.47;18.45;;;5.20;99.90;;;;;;4934522;29;20389;-83
2022/01/10 01:08:33;;;;;;;31.50;18.13;;;5.20;99.90;;;;;;4934379;29;20410;-82
2022/01/10 01:16:17;;;;;;;30.23;17.70;;;5.20;99.90;;;;;;4934090;29;20837;-82
2022/01/10 01:24:07;;;;;;;32.40;17.85;;;5.30;99.90;;;;;;4939671;29;20408;-83
2022/01/10 01:26:39;;;;;;;31.87;17.97;;;5.30;99.90;;;;;;4932869;29;20402;-82
2022/01/10 01:29:07;;;;;;;29.55;17.83;;;5.30;99.90;;;;;;4933950;29;20445;-82
2022/01/10 01:31:33;;;;;;;32.83;18.80;;;5.30;99.90;;;;;;4932245;29;20912;-82
2022/01/10 01:33:59;;;;;;;30.77;18.50;;;5.20;99.90;;;;;;4929346;29;20392;-82
2022/01/10 01:36:25;;;;;;;33.92;18.98;;;5.20;99.90;;;;;;4920678;29;20477;-82
2022/01/10 01:38:52;;;;;;;28.70;18.20;;;5.20;99.90;;;;;;4945122;29;20386;-82
2022/01/10 01:43:53;;;;;;;29.35;18.15;;;5.20;99.90;;;;;;4933232;28;20406;-81
2022/01/10 01:46:20;;;;;;;27.83;17.88;;;5.30;99.90;;;;;;4936216;29;20390;-82
2022/01/10 01:48:47;;;;;;;26.85;17.67;;;5.20;99.90;;;;;;4933656;29;20501;-82
2022/01/10 01:51:13;;;;;;;28.75;18.10;;;5.20;99.90;;;;;;4934024;29;20445;-81
2022/01/10 01:53:39;;;;;;;29.42;17.90;;;5.20;99.90;;;;;;4929569;29;20412;-84
2022/01/10 01:56:06;;;;;;;33.72;18.77;;;5.20;99.90;;;;;;4928605;29;20453;-82
2022/01/10 01:58:33;;;;;;;30.63;17.47;;;5.20;99.90;;;;;;4933617;29;20421;-81
2022/01/10 02:00:59;;;;;;;29.40;18.07;;;5.20;99.90;;;;;;4933259;29;21011;-84
2022/01/10 02:03:24;;;;;;;26.73;16.73;;;5.20;99.90;;;;;;4933780;29;20425;-82
2022/01/10 02:05:50;;;;;;;30.50;16.88;;;5.30;99.90;;;;;;4933023;29;20390;-83
2022/01/10 02:08:16;;;;;;;33.75;17.85;;;5.30;99.90;;;;;;4946746;29;20758;-83
2022/01/10 02:10:42;;;;;;;27.13;16.73;;;5.20;99.90;;;;;;4930572;29;20924;-82
2022/01/10 02:13:08;;;;;;;26.52;16.45;;;5.30;99.90;;;;;;4932225;29;20386;-82
2022/01/10 02:15:46;;;;;;;28.45;16.77;;;5.30;99.90;;;;;;4932269;29;21100;-82
2022/01/10 02:18:14;;;;;;;32.85;16.83;;;5.30;99.90;;;;;;4947348;29;20469;-82
2022/01/10 02:20:40;;;;;;;27.75;16.08;;;5.30;99.90;;;;;;4912125;29;20482;-82
2022/01/10 02:23:05;;;;;;;22.70;15.30;;;5.30;99.90;;;;;;4940613;29;20909;-83
2022/01/10 02:25:31;;;;;;;26.67;16.57;;;5.30;99.90;;;;;;4933697;29;20402;-83
2022/01/10 02:27:59;;;;;;;25.52;14.98;;;5.30;99.90;;;;;;4932714;29;20888;-82
2022/01/10 02:30:26;;;;;;;22.20;15.37;;;5.30;99.90;;;;;;4931273;29;20440;-82
2022/01/10 02:32:52;;;;;;;27.48;16.15;;;5.30;99.90;;;;;;4944831;29;20397;-82
2022/01/10 02:35:33;;;;;;;26.55;16.42;;;5.30;99.90;;;;;;4940456;29;20386;-83
2022/01/10 02:37:59;;;;;;;27.60;14.93;;;5.30;99.90;;;;;;4932744;29;20394;-82
2022/01/10 02:40:28;;;;;;;24.45;15.15;;;5.30;99.90;;;;;;4933168;28;20410;-82
2022/01/10 02:42:54;;;;;;;24.42;14.85;;;5.30;99.90;;;;;;4936990;29;20401;-82
2022/01/10 02:45:20;;;;;;;21.40;15.07;;;5.40;99.90;;;;;;4934277;29;20418;-82
2022/01/10 02:47:47;;;;;;;25.58;15.77;;;5.40;99.90;;;;;;4933038;29;20425;-80
2022/01/10 02:50:13;;;;;;;28.80;16.35;;;5.40;99.90;;;;;;4933448;29;20410;-82
2022/01/10 02:52:39;;;;;;;26.33;16.52;;;5.40;99.90;;;;;;4920938;29;20805;-82
2022/01/10 02:55:07;;;;;;;30.60;16.80;;;5.40;99.90;;;;;;4932817;28;20406;-81
2022/01/10 02:57:34;;;;;;;26.15;16.50;;;5.40;99.90;;;;;;4932064;29;20501;-81
2022/01/10 03:00:14;;;;;;;27.95;15.25;;;5.30;99.90;;;;;;4931727;29;20457;-82
2022/01/10 03:02:42;;;;;;;25.57;15.83;;;5.30;99.90;;;;;;4931935;29;20900;-82
2022/01/10 03:05:09;;;;;;;25.60;15.93;;;5.40;99.90;;;;;;4932085;29;20463;-82
2022/01/10 03:07:35;;;;;;;26.02;16.13;;;5.40;99.90;;;;;;4931758;28;20466;-83
2022/01/10 03:10:02;;;;;;;25.10;16.30;;;5.40;99.90;;;;;;4932679;29;20386;-82
2022/01/10 03:12:30;;;;;;;24.48;16.20;;;5.40;99.90;;;;;;4944667;29;20378;-82
2022/01/10 03:14:58;;;;;;;25.47;16.03;;;5.30;99.90;;;;;;4948662;29;20397;-82
2022/01/10 03:17:23;;;;;;;27.63;16.42;;;5.30;99.90;;;;;;4933188;29;20424;-83
2022/01/10 03:19:50;;;;;;;30.25;17.00;;;5.30;99.90;;;;;;4930655;29;20500;-83
2022/01/10 03:22:15;;;;;;;28.38;17.00;;;5.30;99.90;;;;;;4931822;29;20397;-83
2022/01/10 03:24:41;;;;;;;25.00;15.83;;;5.20;99.90;;;;;;4940624;29;20864;-82
2022/01/10 03:27:07;;;;;;;27.05;17.15;;;5.30;99.90;;;;;;4938683;29;20478;-82
2022/01/10 03:29:32;;;;;;;26.13;16.92;;;5.20;99.90;;;;;;4923400;29;20414;-82
2022/01/10 03:31:58;;;;;;;34.45;17.80;;;5.20;99.90;;;;;;4931956;29;20409;-83
2022/01/10 03:34:24;;;;;;;25.50;17.13;;;5.20;99.90;;;;;;4927474;29;20455;-82
2022/01/10 03:36:49;;;;;;;30.50;17.77;;;5.10;99.90;;;;;;4944760;29;20733;-83
2022/01/10 03:39:15;;;;;;;31.10;17.45;;;5.10;99.90;;;;;;4930299;28;20410;-82
2022/01/10 03:41:41;;;;;;;29.33;16.85;;;5.10;99.90;;;;;;4930374;29;20397;-82
2022/01/10 03:44:07;;;;;;;28.98;16.88;;;5.20;99.90;;;;;;4931265;29;20912;-82
2022/01/10 03:46:34;;;;;;;24.52;15.73;;;5.20;99.90;;;;;;4931376;29;20741;-82
2022/01/10 03:49:00;;;;;;;25.58;15.88;;;5.20;99.90;;;;;;4932770;29;20918;-82
2022/01/10 03:51:26;;;;;;;25.58;15.77;;;5.20;99.90;;;;;;4934188;29;21135;-83
2022/01/10 03:53:52;;;;;;;23.25;15.60;;;5.20;99.90;;;;;;4930895;29;20399;-82
2022/01/10 03:56:19;;;;;;;21.38;15.38;;;5.30;99.90;;;;;;4929654;29;20393;-82
2022/01/10 03:58:45;;;;;;;26.77;15.93;;;5.20;99.90;;;;;;4933970;29;20410;-83
2022/01/10 04:01:12;;;;;;;24.93;15.63;;;5.30;99.90;;;;;;4935259;29;20405;-82
2022/01/10 04:03:38;;;;;;;28.27;16.58;;;5.30;99.90;;;;;;4930690;29;20423;-82
2022/01/10 04:06:05;;;;;;;26.23;16.63;;;5.20;99.90;;;;;;4927633;29;20421;-83
2022/01/10 04:08:31;;;;;;;30.48;17.75;;;5.20;99.90;;;;;;4935729;29;20417;-82
2022/01/10 04:10:56;;;;;;;35.30;17.60;;;5.20;99.90;;;;;;4934128;29;20509;-83
2022/01/10 04:13:23;;;;;;;28.95;16.75;;;5.20;99.90;;;;;;4934652;29;20389;-82
2022/01/10 04:15:49;;;;;;;30.65;17.30;;;5.20;99.90;;;;;;4935895;29;20402;-83
2022/01/10 04:18:15;;;;;;;30.40;16.65;;;5.10;99.90;;;;;;4933796;29;20900;-83
2022/01/10 04:20:43;;;;;;;28.08;16.27;;;5.20;99.90;;;;;;4934929;29;20819;-83
2022/01/10 04:23:09;;;;;;;28.45;16.23;;;5.20;99.90;;;;;;4933718;29;20389;-83
2022/01/10 04:25:35;;;;;;;25.17;16.02;;;5.20;99.90;;;;;;4930604;29;20403;-82
2022/01/10 04:28:01;;;;;;;20.33;14.93;;;5.20;99.90;;;;;;4933745;28;20419;-83
2022/01/10 04:30:27;;;;;;;27.60;16.58;;;5.20;99.90;;;;;;4933860;29;20390;-82
2022/01/10 04:32:52;;;;;;;25.48;15.30;;;5.20;99.90;;;;;;4934664;28;20522;-83
2022/01/10 04:35:18;;;;;;;25.63;16.45;;;5.30;99.90;;;;;;4929969;29;20474;-82
2022/01/10 04:37:45;;;;;;;29.70;17.10;;;5.20;99.90;;;;;;4928218;29;20903;-83
2022/01/10 04:40:11;;;;;;;26.65;16.23;;;5.20;99.90;;;;;;4933606;28;20418;-82
2022/01/10 04:42:37;;;;;;;28.58;16.45;;;5.20;99.90;;;;;;4934573;29;20481;-83
2022/01/10 04:45:04;;;;;;;23.00;15.67;;;5.10;99.90;;;;;;4934836;29;20476;-83
2022/01/10 04:47:30;;;;;;;22.85;15.30;;;5.20;99.90;;;;;;4933208;29;20382;-83
2022/01/10 04:52:40;;;;;;;28.52;17.13;;;5.20;99.90;;;;;;4939361;28;20487;-82
2022/01/10 04:55:06;;;;;;;29.05;17.15;;;5.20;99.90;;;;;;4937179;29;20405;-82
2022/01/10 04:57:32;;;;;;;29.95;17.20;;;5.10;99.90;;;;;;4932526;29;20394;-82
2022/01/10 04:59:57;;;;;;;26.67;16.50;;;5.20;99.90;;;;;;4932676;29;20392;-83
2022/01/10 05:02:23;;;;;;;29.10;16.43;;;5.20;99.90;;;;;;4933857;28;20409;-82
2022/01/10 05:04:49;;;;;;;24.03;16.33;;;5.10;99.90;;;;;;4930301;29;20479;-84
2022/01/10 05:07:15;;;;;;;31.27;17.43;;;5.10;99.90;;;;;;4933973;29;20883;-83
2022/01/10 05:09:40;;;;;;;30.30;17.80;;;5.10;99.90;;;;;;4914567;29;20423;-83
2022/01/10 05:12:07;;;;;;;29.83;17.87;;;5.10;99.90;;;;;;4928105;29;20401;-83
2022/01/10 05:14:33;;;;;;;30.27;16.88;;;5.10;99.90;;;;;;4930210;29;20387;-84
2022/01/10 05:16:59;;;;;;;30.20;17.65;;;5.10;99.90;;;;;;4918481;29;20780;-83
2022/01/10 05:19:26;;;;;;;26.23;16.77;;;5.10;99.90;;;;;;4933882;29;20406;-83
2022/01/10 05:21:52;;;;;;;34.63;17.95;;;5.10;99.90;;;;;;4932412;29;20413;-83
2022/01/10 05:24:17;;;;;;;29.57;17.60;;;5.10;99.90;;;;;;4929470;29;20399;-83
2022/01/10 05:26:43;;;;;;;31.40;17.43;;;5.10;99.90;;;;;;4925710;29;20933;-83
2022/01/10 05:29:09;;;;;;;33.70;19.33;;;5.10;99.90;;;;;;4933201;29;20424;-83
2022/01/10 05:31:34;;;;;;;29.13;18.40;;;5.00;99.90;;;;;;4933272;29;20421;-83
2022/01/10 05:34:01;;;;;;;28.67;17.97;;;5.10;99.90;;;;;;4933635;29;20884;-83
2022/01/10 05:36:27;;;;;;;31.50;17.98;;;5.00;99.90;;;;;;4929969;29;20456;-83
2022/01/10 05:38:52;;;;;;;30.63;17.40;;;5.10;99.90;;;;;;4934341;29;20398;-83
2022/01/10 05:41:21;;;;;;;30.17;18.73;;;5.10;99.90;;;;;;4933271;29;20477;-83
2022/01/10 05:43:46;;;;;;;27.60;16.50;;;5.20;99.90;;;;;;4932415;29;20410;-84
2022/01/10 05:46:15;;;;;;;29.23;17.23;;;5.20;99.90;;;;;;4932569;29;20732;-83
2022/01/10 05:48:46;;;;;;;26.00;16.90;;;5.30;99.90;;;;;;4932522;29;20447;-83
2022/01/10 05:51:12;;;;;;;21.95;16.42;;;5.20;99.90;;;;;;4948451;29;20445;-84
2022/01/10 05:53:38;;;;;;;26.08;16.15;;;5.30;99.90;;;;;;4932932;29;20409;-83
2022/01/10 05:56:04;;;;;;;22.10;15.07;;;5.20;99.90;;;;;;4932607;29;20398;-83
2022/01/10 05:58:30;;;;;;;19.45;13.77;;;5.20;99.90;;;;;;4933648;29;20390;-83
2022/01/10 06:00:56;;;;;;;24.77;16.08;;;5.20;99.90;;;;;;4932184;29;20386;-84
2022/01/10 06:03:21;;;;;;;23.80;15.00;;;5.20;99.90;;;;;;4933403;28;20398;-83
2022/01/10 06:05:47;;;;;;;25.53;15.83;;;5.20;99.90;;;;;;4932273;29;20405;-83
2022/01/10 06:08:13;;;;;;;22.80;15.70;;;5.10;99.90;;;;;;4930650;29;20488;-83
2022/01/10 06:10:40;;;;;;;21.17;14.80;;;5.10;99.90;;;;;;4932555;29;20418;-82
2022/01/10 06:13:06;;;;;;;20.03;13.80;;;5.10;99.90;;;;;;4927997;29;20391;-83
2022/01/10 06:15:33;;;;;;;22.20;14.47;;;5.10;99.90;;;;;;4935740;29;20485;-83
2022/01/10 06:17:58;;;;;;;22.33;14.93;;;5.20;99.90;;;;;;4938780;29;20392;-83
2022/01/10 06:20:24;;;;;;;24.58;15.30;;;5.10;99.90;;;;;;4951344;29;20396;-84
2022/01/10 06:22:50;;;;;;;22.58;15.10;;;5.10;99.90;;;;;;4935167;29;20386;-82
2022/01/10 06:25:19;;;;;;;19.20;14.40;;;5.10;99.90;;;;;;4931500;29;20401;-83
2022/01/10 06:27:44;;;;;;;22.87;15.50;;;5.20;99.90;;;;;;4931242;29;21009;-83
2022/01/10 06:30:10;;;;;;;23.07;15.27;;;5.20;99.90;;;;;;4932307;29;20492;-83
2022/01/10 06:32:36;;;;;;;24.57;15.80;;;5.10;99.90;;;;;;4932423;29;20418;-83
2022/01/10 06:35:02;;;;;;;26.17;16.03;;;5.20;99.90;;;;;;4932842;29;20401;-83
2022/01/10 06:37:28;;;;;;;29.23;17.70;;;5.10;99.90;;;;;;4929932;29;20417;-82
2022/01/10 06:39:53;;;;;;;26.03;16.90;;;5.10;99.90;;;;;;4931530;29;20386;-83
2022/01/10 06:42:20;;;;;;;31.17;17.52;;;5.10;99.90;;;;;;4933193;29;20436;-83
2022/01/10 06:44:46;;;;;;;24.85;16.30;;;5.00;99.90;;;;;;4932660;29;20446;-83
2022/01/10 06:47:11;;;;;;;25.90;16.50;;;5.10;99.90;;;;;;4932537;29;20382;-83
2022/01/10 06:49:37;;;;;;;28.30;17.53;;;5.10;99.90;;;;;;4930880;29;20422;-83
2022/01/10 06:52:04;;;;;;;30.77;16.90;;;5.10;99.90;;;;;;4931334;29;20398;-83
2022/01/10 06:54:29;;;;;;;29.45;17.35;;;5.10;99.90;;;;;;4947234;29;20397;-82
2022/01/10 06:56:58;;;;;;;30.23;17.33;;;5.10;99.90;;;;;;4932495;29;20390;-83
2022/01/10 06:59:27;;;;;;;30.03;17.70;;;5.10;99.90;;;;;;4931026;29;20453;-82
2022/01/10 07:01:58;;;;;;;32.70;18.60;;;5.10;99.90;;;;;;4930977;28;20514;-82
2022/01/10 07:04:25;;;;;;;28.83;16.90;;;5.10;99.90;;;;;;4931474;29;20473;-82
2022/01/10 07:06:50;;;;;;;35.55;18.35;;;5.10;99.90;;;;;;4930752;29;21023;-82
2022/01/10 07:09:16;;;;;;;33.27;18.60;;;5.10;99.90;;;;;;4933051;29;20496;-82
2022/01/10 07:11:42;;;;;;;32.67;18.02;;;5.10;99.90;;;;;;4932474;29;20461;-82
2022/01/10 07:14:07;;;;;;;32.97;18.63;;;5.10;99.90;;;;;;4932080;28;20538;-83
2022/01/10 07:16:34;;;;;;;27.38;17.95;;;5.10;99.90;;;;;;4931228;29;20386;-83
2022/01/10 07:19:01;;;;;;;35.30;19.25;;;5.00;99.90;;;;;;4932366;29;20393;-82
2022/01/10 07:21:26;;;;;;;31.55;18.50;;;5.00;99.90;;;;;;4931098;29;20473;-83
2022/01/10 07:23:53;;;;;;;34.35;19.05;;;5.00;99.90;;;;;;4931440;28;20484;-82
2022/01/10 07:26:18;;;;;;;31.20;18.50;;;5.10;99.90;;;;;;4932112;29;20409;-82
2022/01/10 07:28:44;;;;;;;31.33;18.10;;;5.00;99.90;;;;;;4932164;29;20429;-82
2022/01/10 07:31:10;;;;;;;31.20;18.60;;;5.10;99.90;;;;;;4932600;29;20398;-82
2022/01/10 07:33:37;;;;;;;31.50;18.55;;;5.10;99.90;;;;;;4933958;29;20472;-83
2022/01/10 07:36:03;;;;;;;29.45;17.38;;;5.10;99.90;;;;;;4934641;28;20406;-83
2022/01/10 07:38:35;;;;;;;34.75;19.55;;;5.20;99.90;;;;;;4933659;29;20390;-83
2022/01/10 07:41:02;;;;;;;30.13;18.40;;;5.20;99.90;;;;;;4935538;29;20398;-82
2022/01/10 07:43:27;;;;;;;27.63;17.73;;;5.20;99.90;;;;;;4935366;29;20386;-82
2022/01/10 07:45:53;;;;;;;35.73;18.43;;;5.20;99.90;;;;;;4934314;29;20930;-82
2022/01/10 07:48:19;;;;;;;36.65;19.05;;;5.30;99.90;;;;;;4931033;29;20414;-81
2022/01/10 07:50:44;;;;;;;30.63;18.83;;;5.30;99.90;;;;;;4930937;28;20972;-82
2022/01/10 07:53:12;;;;;;;34.55;18.13;;;5.30;99.90;;;;;;4945563;29;20666;-81
2022/01/10 07:55:38;;;;;;;29.63;17.73;;;5.30;99.90;;;;;;4951327;29;20478;-84
2022/01/10 07:58:03;;;;;;;26.27;17.27;;;5.40;99.90;;;;;;4949317;29;20395;-81
2022/01/10 08:00:29;;;;;;;34.97;18.63;;;5.30;99.90;;;;;;4949206;28;20953;-81
2022/01/10 08:02:54;;;;;;;33.37;18.30;;;5.40;99.90;;;;;;4951489;29;20859;-81
2022/01/10 08:05:20;;;;;;;34.97;18.87;;;5.30;99.90;;;;;;4937182;29;20396;-82
2022/01/10 08:07:46;;;;;;;29.75;17.33;;;5.30;99.90;;;;;;4930773;29;20456;-83
2022/01/10 08:10:11;;;;;;;28.13;17.33;;;5.30;99.90;;;;;;4928353;28;20401;-83
2022/01/10 08:12:37;;;;;;;30.00;16.80;;;5.30;99.90;;;;;;4930693;29;20386;-83
2022/01/10 08:15:03;;;;;;;26.37;17.13;;;5.30;99.90;;;;;;4930811;29;20405;-82
2022/01/10 08:17:29;;;;;;;29.27;16.67;;;5.30;99.90;;;;;;4930199;29;20445;-82
2022/01/10 08:19:55;;;;;;;24.90;15.50;;;5.40;99.90;;;;;;4932168;29;20757;-83
2022/01/10 08:22:23;;;;;;;21.13;14.83;;;5.40;99.90;;;;;;4930575;29;21184;-84
2022/01/10 08:24:50;;;;;;;27.17;16.23;;;5.50;99.90;;;;;;4928774;29;20885;-83
2022/01/10 08:27:15;;;;;;;27.17;16.63;;;5.50;99.90;;;;;;4930740;29;20438;-82
2022/01/10 08:29:42;;;;;;;26.13;16.93;;;5.50;99.90;;;;;;4930986;29;20422;-83
2022/01/10 08:32:08;;;;;;;32.50;18.30;;;5.40;99.90;;;;;;4932613;29;20394;-83
2022/01/10 08:34:34;;;;;;;30.47;17.43;;;5.40;99.90;;;;;;4931299;29;20809;-83
2022/01/10 08:37:00;;;;;;;25.33;16.47;;;5.50;99.90;;;;;;4934762;29;20880;-84
2022/01/10 08:39:25;;;;;;;23.67;15.98;;;5.50;99.90;;;;;;4935871;29;20402;-83
2022/01/10 08:41:51;;;;;;;30.48;17.55;;;5.60;99.90;;;;;;4936365;29;20473;-83
2022/01/10 08:44:17;;;;;;;26.58;15.90;;;5.60;99.90;;;;;;4936138;29;20992;-83
2022/01/10 08:46:44;;;;;;;25.33;15.73;;;5.60;99.90;;;;;;4932620;29;20406;-83
2022/01/10 08:49:09;;;;;;;24.50;16.17;;;5.70;99.90;;;;;;4933622;29;20926;-83
2022/01/10 08:51:35;;;;;;;30.00;17.03;;;5.80;99.90;;;;;;4934674;29;20465;-85
2022/01/10 08:54:03;;;;;;;28.17;17.37;;;5.80;99.90;;;;;;4935064;29;20530;-83
2022/01/10 08:56:28;;;;;;;25.08;16.35;;;5.80;99.90;;;;;;4935490;29;20473;-83
2022/01/10 08:58:54;;;;;;;28.50;17.42;;;5.80;99.90;;;;;;4933820;29;21166;-83
2022/01/10 09:01:21;;;;;;;25.97;16.10;;;5.90;99.90;;;;;;4934600;29;20797;-84
2022/01/10 09:03:48;;;;;;;25.02;16.40;;;5.90;99.90;;;;;;4934344;29;20477;-84
2022/01/10 09:06:14;;;;;;;23.08;15.63;;;5.90;99.90;;;;;;4933823;29;20387;-83
2022/01/10 09:08:43;;;;;;;27.52;16.83;;;5.90;99.90;;;;;;4934168;29;20414;-82
2022/01/10 09:11:09;;;;;;;26.55;17.65;;;5.90;99.90;;;;;;4931362;29;20421;-83
2022/01/10 09:13:34;;;;;;;30.02;18.00;;;5.90;99.90;;;;;;4934317;29;20378;-82
2022/01/10 09:16:02;;;;;;;29.10;17.40;;;5.90;99.90;;;;;;4934271;29;20480;-82
2022/01/10 09:18:28;;;;;;;28.15;17.90;;;5.90;99.90;;;;;;4932575;29;20918;-82
2022/01/10 09:20:55;;;;;;;26.42;17.52;;;5.90;99.90;;;;;;4933997;29;20397;-82
2022/01/10 09:23:22;;;;;;;28.05;18.23;;;6.00;99.90;;;;;;4941010;29;20418;-82
2022/01/10 09:25:49;;;;;;;27.75;19.40;;;6.00;99.90;;;;;;4937653;29;20390;-83
2022/01/10 09:28:15;;;;;;;27.60;18.27;;;6.00;99.90;;;;;;4932645;29;20764;-84
2022/01/10 09:30:41;;;;;;;27.25;18.02;;;6.00;99.90;;;;;;4933598;29;20378;-82
2022/01/10 09:33:07;;;;;;;30.15;18.98;;;6.00;99.90;;;;;;4933890;29;20389;-83
2022/01/10 09:35:32;;;;;;;28.03;19.17;;;6.00;99.90;;;;;;4932342;28;21014;-82
2022/01/10 09:37:58;;;;;;;26.67;17.77;;;6.00;99.90;;;;;;4931377;29;20400;-81
2022/01/10 09:40:23;;;;;;;25.58;17.95;;;6.10;99.90;;;;;;4931547;29;20405;-82
2022/01/10 09:42:50;;;;;;;27.63;19.07;;;6.10;99.90;;;;;;4932693;29;20412;-82
2022/01/10 09:45:16;;;;;;;33.42;21.38;;;6.20;99.90;;;;;;4932013;29;20412;-83
2022/01/10 09:47:42;;;;;;;28.03;19.00;;;6.20;99.90;;;;;;4933200;29;21151;-83
2022/01/10 09:50:10;;;;;;;30.77;19.63;;;6.10;99.90;;;;;;4934621;29;20426;-82
2022/01/10 09:52:38;;;;;;;25.42;19.13;;;6.10;99.90;;;;;;4931498;29;20425;-81
2022/01/10 09:55:05;;;;;;;30.27;20.65;;;6.20;99.90;;;;;;4933396;29;20444;-82
2022/01/10 09:57:30;;;;;;;28.33;19.60;;;6.30;99.90;;;;;;4933317;29;20390;-82
2022/01/10 09:59:56;;;;;;;29.92;19.92;;;6.40;99.90;;;;;;4928176;29;20506;-83
2022/01/10 10:02:28;;;;;;;27.92;18.80;;;6.30;99.90;;;;;;4932532;29;20390;-82
2022/01/10 10:04:54;;;;;;;33.67;21.83;;;6.40;99.90;;;;;;4931877;29;20390;-82
2022/01/10 10:07:24;;;;;;;28.20;19.75;;;6.30;99.90;;;;;;4933630;29;20826;-83
2022/01/10 10:09:49;;;;;;;33.95;23.92;;;6.30;99.90;;;;;;4931275;29;20497;-82
2022/01/10 10:12:15;;;;;;;28.92;21.67;;;6.30;99.90;;;;;;4932868;28;20397;-82
2022/01/10 10:14:44;;;;;;;32.37;20.50;;;6.30;99.90;;;;;;4933310;29;20394;-83
2022/01/10 10:17:16;;;;;;;28.77;19.02;;;6.40;99.90;;;;;;4930656;29;20442;-82
2022/01/10 10:19:42;;;;;;;31.70;19.33;;;6.50;99.90;;;;;;4932292;29;20414;-82
2022/01/10 10:22:08;;;;;;;25.98;18.42;;;6.50;99.90;;;;;;4932449;28;20515;-82
2022/01/10 10:24:33;;;;;;;30.97;19.10;;;6.50;99.90;;;;;;4933153;29;20412;-83
2022/01/10 10:26:59;;;;;;;28.50;17.97;;;6.50;99.90;;;;;;4932958;29;20382;-82
2022/01/10 10:29:25;;;;;;;20.52;16.42;;;6.50;99.90;;;;;;4932857;29;20402;-82
2022/01/10 10:31:54;;;;;;;24.17;16.75;;;6.60;99.90;;;;;;4930499;29;20836;-83
2022/01/10 10:34:28;;;;;;;21.40;15.68;;;6.60;99.90;;;;;;4931949;29;20382;-82
2022/01/10 10:37:05;;;;;;;23.53;15.57;;;6.70;99.90;;;;;;4931159;29;20405;-83
2022/01/10 10:39:34;;;;;;;23.98;15.85;;;6.70;99.90;;;;;;4915152;29;20394;-83
2022/01/10 10:42:03;;;;;;;20.50;14.87;;;6.80;99.90;;;;;;4931182;28;21075;-83
2022/01/10 10:44:29;;;;;;;25.52;15.30;;;6.80;99.90;;;;;;4931919;29;20426;-82
2022/01/10 10:46:56;;;;;;;19.03;15.77;;;6.80;99.90;;;;;;4932076;29;20386;-82
2022/01/10 10:49:34;;;;;;;20.33;14.75;;;6.80;99.90;;;;;;4931398;29;20750;-82
2022/01/10 10:52:03;;;;;;;21.27;14.27;;;6.80;99.90;;;;;;4932374;29;20389;-83
2022/01/10 10:54:32;;;;;;;24.20;13.98;;;6.80;99.90;;;;;;4931407;29;20390;-82
2022/01/10 10:57:02;;;;;;;18.70;13.87;;;6.90;99.90;;;;;;4931642;29;20412;-82
2022/01/10 10:59:35;;;;;;;19.55;13.25;;;6.90;99.90;;;;;;4932818;29;20396;-83
2022/01/10 11:02:02;;;;;;;22.88;14.00;;;7.00;99.90;;;;;;4930773;29;20464;-83
2022/01/10 11:04:30;;;;;;;17.38;10.93;;;6.70;99.90;;;;;;4932265;29;20900;-83
2022/01/10 11:06:57;;;;;;;14.73;10.18;;;6.60;99.90;;;;;;4942459;29;20428;-82
2022/01/10 11:09:22;;;;;;;12.75;9.65;;;6.50;99.90;;;;;;4935623;29;20413;-83
2022/01/10 11:11:48;;;;;;;13.13;9.95;;;6.60;99.90;;;;;;4931569;29;20457;-83
2022/01/10 11:14:14;;;;;;;12.20;9.25;;;6.70;99.90;;;;;;4946661;28;21192;-83
2022/01/10 11:16:45;;;;;;;13.50;9.73;;;6.80;99.90;;;;;;4946820;28;20449;-82
2022/01/10 11:19:21;;;;;;;12.93;10.18;;;6.70;99.90;;;;;;4931557;28;20416;-82
2022/01/10 11:22:03;;;;;;;15.02;10.82;;;6.70;99.90;;;;;;4927018;29;20403;-82
2022/01/10 11:24:53;;;;;;;13.68;9.95;;;6.70;99.90;;;;;;4918745;29;20398;-83
2022/01/10 11:27:32;;;;;;;13.20;11.25;;;6.80;99.90;;;;;;4928991;29;20405;-84
2022/01/10 11:29:59;;;;;;;15.60;11.00;;;6.90;99.90;;;;;;4927211;28;20417;-82
2022/01/10 11:33:02;;;;;;;15.73;10.68;;;6.70;99.90;;;;;;4927097;29;20420;-82
2022/01/10 11:35:32;;;;;;;13.25;11.00;;;6.50;99.90;;;;;;4927934;29;20410;-82
2022/01/10 11:37:59;;;;;;;15.27;11.45;;;6.40;99.90;;;;;;4927586;29;20481;-82
2022/01/10 11:40:25;;;;;;;12.88;10.85;;;6.40;99.90;;;;;;4927954;29;20446;-82
2022/01/10 11:42:57;;;;;;;14.43;11.32;;;6.40;99.90;;;;;;4926857;29;20417;-82
2022/01/10 11:45:25;;;;;;;14.30;10.85;;;6.30;99.90;;;;;;4928899;29;20915;-83
2022/01/10 11:48:04;;;;;;;13.37;10.17;;;6.30;99.90;;;;;;4927310;29;20461;-83
2022/01/10 11:50:31;;;;;;;17.67;11.53;;;6.40;99.90;;;;;;4926968;29;20438;-82
2022/01/10 11:52:59;;;;;;;14.05;10.00;;;6.20;99.90;;;;;;4926927;29;20398;-82
2022/01/10 11:55:54;;;;;;;12.30;10.43;;;6.30;99.90;;;;;;4927352;29;20398;-83
2022/01/10 11:58:23;;;;;;;19.17;16.20;;;6.40;99.90;;;;;;4928173;29;20432;-82
2022/01/10 12:00:52;;;;;;;29.23;26.45;;;6.30;99.90;;;;;;4926816;29;20390;-82
2022/01/10 12:03:21;;;;;;;16.33;12.90;;;6.20;99.90;;;;;;4927191;29;20425;-82
2022/01/10 12:05:48;;;;;;;21.05;18.80;;;6.10;99.90;;;;;;4926597;29;20390;-83
2022/01/10 12:08:14;;;;;;;27.10;24.20;;;6.00;99.90;;;;;;4928136;29;20406;-83
2022/01/10 12:10:40;;;;;;;41.30;37.20;;;5.70;99.90;;;;;;4933654;29;20457;-81
2022/01/10 12:13:11;;;;;;;25.27;22.48;;;5.50;99.90;;;;;;4932439;29;20493;-83
2022/01/10 12:15:37;;;;;;;20.10;16.67;;;5.70;99.90;;;;;;4946774;29;20397;-83
2022/01/10 12:18:05;;;;;;;19.73;17.05;;;5.80;99.90;;;;;;4932822;29;20984;-82
2022/01/10 12:20:31;;;;;;;26.47;20.20;;;5.70;99.90;;;;;;4932863;29;20400;-82
2022/01/10 12:22:59;;;;;;;22.30;18.42;;;5.50;99.90;;;;;;4915361;28;20951;-82
2022/01/10 12:25:25;;;;;;;19.85;16.15;;;5.80;99.90;;;;;;4933770;29;20828;-82
2022/01/10 12:27:56;;;;;;;18.70;14.70;;;5.90;99.90;;;;;;4932740;29;20956;-83
2022/01/10 12:30:25;;;;;;;19.17;15.27;;;6.10;99.90;;;;;;4934942;29;20381;-83
2022/01/10 12:32:51;;;;;;;17.80;15.50;;;6.00;99.90;;;;;;4933338;29;20802;-83
2022/01/10 12:35:17;;;;;;;18.58;15.82;;;6.10;99.90;;;;;;4935198;29;20490;-83
2022/01/10 12:37:43;;;;;;;18.53;14.73;;;6.20;99.90;;;;;;4934144;28;20913;-83
2022/01/10 12:40:11;;;;;;;18.93;15.17;;;6.20;99.90;;;;;;4933502;29;20387;-83
2022/01/10 12:42:37;;;;;;;16.55;14.80;;;6.20;99.90;;;;;;4936421;29;20907;-83
2022/01/10 12:45:04;;;;;;;18.17;15.30;;;6.20;99.90;;;;;;4934962;29;20413;-83
2022/01/10 12:47:30;;;;;;;16.92;14.07;;;6.20;99.90;;;;;;4932728;29;20836;-83
2022/01/10 12:49:55;;;;;;;16.30;13.55;;;6.10;99.90;;;;;;4936646;29;20445;-83
2022/01/10 12:52:22;;;;;;;14.80;13.20;;;6.20;99.90;;;;;;4949016;29;20429;-83